sensor_id;sensor_type;location;lat;lon;timestamp;pressure;altitude;pressure_sealevel;temperature
15680;BMP180;15488;48.114;11.532;2022-08-02T00:01:01;95617.00;;;24.10
15680;BMP180;15488;48.114;11.532;2022-08-02T00:03:29;95621.00;;;24.20
15680;BMP180;15488;48.114;11.532;2022-08-02T00:05:56;95616.00;;;24.30
15680;BMP180;15488;48.114;11.532;2022-08-02T00:08:23;95631.00;;;24.20
15680;BMP180;15488;48.114;11.532;2022-08-02T00:10:51;95637.00;;;24.30
15680;BMP180;15488;48.114;11.532;2022-08-02T00:13:18;95642.00;;;24.30
15680;BMP180;15488;48.114;11.532;2022-08-02T00:15:46;95650.00;;;24.40
15680;BMP180;15488;48.114;11.532;2022-08-02T00:18:15;95656.00;;;24.40
15680;BMP180;15488;48.114;11.532;2022-08-02T00:20:42;95660.00;;;24.40
15680;BMP180;15488;48.114;11.532;2022-08-02T00:23:10;95651.00;;;24.50
15680;BMP180;15488;48.114;11.532;2022-08-02T00:25:37;95655.00;;;24.50
15680;BMP180;15488;48.114;11.532;2022-08-02T00:28:05;95648.00;;;24.50
15680;BMP180;15488;48.114;11.532;2022-08-02T00:30:35;95659.00;;;24.50
15680;BMP180;15488;48.114;11.532;2022-08-02T00:33:03;95656.00;;;24.50
15680;BMP180;15488;48.114;11.532;2022-08-02T00:35:33;95655.00;;;24.50
15680;BMP180;15488;48.114;11.532;2022-08-02T00:38:01;95655.00;;;24.60
15680;BMP180;15488;48.114;11.532;2022-08-02T00:40:29;95646.00;;;24.60
15680;BMP180;15488;48.114;11.532;2022-08-02T00:43:04;95641.00;;;24.60
15680;BMP180;15488;48.114;11.532;2022-08-02T00:45:33;95638.00;;;24.60
15680;BMP180;15488;48.114;11.532;2022-08-02T00:48:02;95633.00;;;24.60
15680;BMP180;15488;48.114;11.532;2022-08-02T00:50:29;95630.00;;;24.50
15680;BMP180;15488;48.114;11.532;2022-08-02T00:52:59;95624.00;;;24.50
15680;BMP180;15488;48.114;11.532;2022-08-02T00:55:26;95629.00;;;24.60
15680;BMP180;15488;48.114;11.532;2022-08-02T00:57:55;95630.00;;;24.40
15680;BMP180;15488;48.114;11.532;2022-08-02T01:00:22;95630.00;;;24.40
15680;BMP180;15488;48.114;11.532;2022-08-02T01:02:53;95634.00;;;24.50
15680;BMP180;15488;48.114;11.532;2022-08-02T01:05:21;95633.00;;;24.50
15680;BMP180;15488;48.114;11.532;2022-08-02T01:07:49;95630.00;;;24.50
15680;BMP180;15488;48.114;11.532;2022-08-02T01:10:18;95628.00;;;24.50
15680;BMP180;15488;48.114;11.532;2022-08-02T01:12:46;95636.00;;;24.40
15680;BMP180;15488;48.114;11.532;2022-08-02T01:15:14;95635.00;;;24.30
15680;BMP180;15488;48.114;11.532;2022-08-02T01:17:46;95635.00;;;24.40
15680;BMP180;15488;48.114;11.532;2022-08-02T01:20:34;95638.00;;;24.40
15680;BMP180;15488;48.114;11.532;2022-08-02T01:23:27;95625.00;;;24.30
15680;BMP180;15488;48.114;11.532;2022-08-02T01:26:16;95630.00;;;24.30
15680;BMP180;15488;48.114;11.532;2022-08-02T01:28:50;95632.00;;;24.20
15680;BMP180;15488;48.114;11.532;2022-08-02T01:31:25;95629.00;;;24.30
15680;BMP180;15488;48.114;11.532;2022-08-02T01:34:00;95629.00;;;23.90
15680;BMP180;15488;48.114;11.532;2022-08-02T01:36:35;95630.00;;;24.20
15680;BMP180;15488;48.114;11.532;2022-08-02T01:39:04;95628.00;;;24.40
15680;BMP180;15488;48.114;11.532;2022-08-02T01:41:35;95625.00;;;24.30
15680;BMP180;15488;48.114;11.532;2022-08-02T01:44:06;95622.00;;;24.30
15680;BMP180;15488;48.114;11.532;2022-08-02T01:46:38;95622.00;;;24.30
15680;BMP180;15488;48.114;11.532;2022-08-02T01:49:11;95622.00;;;24.30
15680;BMP180;15488;48.114;11.532;2022-08-02T01:51:44;95624.00;;;24.40
15680;BMP180;15488;48.114;11.532;2022-08-02T01:54:32;95616.00;;;24.40
15680;BMP180;15488;48.114;11.532;2022-08-02T01:57:03;95613.00;;;24.40
15680;BMP180;15488;48.114;11.532;2022-08-02T01:59:36;95617.00;;;24.40
15680;BMP180;15488;48.114;11.532;2022-08-02T02:02:07;95614.00;;;24.40
15680;BMP180;15488;48.114;11.532;2022-08-02T02:04:35;95624.00;;;24.40
15680;BMP180;15488;48.114;11.532;2022-08-02T02:07:04;95614.00;;;24.50
15680;BMP180;15488;48.114;11.532;2022-08-02T02:09:37;95615.00;;;24.50
15680;BMP180;15488;48.114;11.532;2022-08-02T02:12:06;95614.00;;;24.50
15680;BMP180;15488;48.114;11.532;2022-08-02T02:14:36;95611.00;;;24.50
15680;BMP180;15488;48.114;11.532;2022-08-02T02:17:05;95612.00;;;24.50
15680;BMP180;15488;48.114;11.532;2022-08-02T02:19:36;95605.00;;;24.50
15680;BMP180;15488;48.114;11.532;2022-08-02T02:22:03;95612.00;;;24.50
15680;BMP180;15488;48.114;11.532;2022-08-02T02:24:31;95608.00;;;24.50
15680;BMP180;15488;48.114;11.532;2022-08-02T02:26:59;95605.00;;;24.50
15680;BMP180;15488;48.114;11.532;2022-08-02T02:29:31;95610.00;;;24.50
15680;BMP180;15488;48.114;11.532;2022-08-02T02:32:01;95605.00;;;24.50
15680;BMP180;15488;48.114;11.532;2022-08-02T02:34:33;95613.00;;;24.50
15680;BMP180;15488;48.114;11.532;2022-08-02T02:37:05;95606.00;;;24.50
15680;BMP180;15488;48.114;11.532;2022-08-02T02:39:35;95598.00;;;24.50
15680;BMP180;15488;48.114;11.532;2022-08-02T02:42:07;95601.00;;;24.50
15680;BMP180;15488;48.114;11.532;2022-08-02T02:44:38;95611.00;;;24.30
15680;BMP180;15488;48.114;11.532;2022-08-02T03:07:25;95613.00;;;24.50
15680;BMP180;15488;48.114;11.532;2022-08-02T03:09:56;95608.00;;;24.50
15680;BMP180;15488;48.114;11.532;2022-08-02T03:12:24;95614.00;;;24.50
15680;BMP180;15488;48.114;11.532;2022-08-02T03:14:56;95617.00;;;24.60
15680;BMP180;15488;48.114;11.532;2022-08-02T03:17:24;95617.00;;;24.60
15680;BMP180;15488;48.114;11.532;2022-08-02T03:19:54;95619.00;;;24.60
15680;BMP180;15488;48.114;11.532;2022-08-02T03:22:23;95619.00;;;24.60
15680;BMP180;15488;48.114;11.532;2022-08-02T03:24:51;95623.00;;;24.60
15680;BMP180;15488;48.114;11.532;2022-08-02T03:27:18;95620.00;;;24.70
15680;BMP180;15488;48.114;11.532;2022-08-02T03:29:46;95622.00;;;24.70
15680;BMP180;15488;48.114;11.532;2022-08-02T03:32:14;95625.00;;;24.70
15680;BMP180;15488;48.114;11.532;2022-08-02T03:34:41;95625.00;;;24.70
15680;BMP180;15488;48.114;11.532;2022-08-02T03:37:12;95627.00;;;24.70
15680;BMP180;15488;48.114;11.532;2022-08-02T03:39:41;95632.00;;;24.70
15680;BMP180;15488;48.114;11.532;2022-08-02T03:42:09;95619.00;;;24.70
15680;BMP180;15488;48.114;11.532;2022-08-02T03:44:37;95625.00;;;24.70
15680;BMP180;15488;48.114;11.532;2022-08-02T03:47:06;95624.00;;;24.70
15680;BMP180;15488;48.114;11.532;2022-08-02T03:49:34;95621.00;;;24.80
15680;BMP180;15488;48.114;11.532;2022-08-02T03:52:03;95623.00;;;24.80
15680;BMP180;15488;48.114;11.532;2022-08-02T03:54:30;95623.00;;;24.80
15680;BMP180;15488;48.114;11.532;2022-08-02T03:56:59;95635.00;;;24.80
15680;BMP180;15488;48.114;11.532;2022-08-02T03:59:27;95628.00;;;24.80
15680;BMP180;15488;48.114;11.532;2022-08-02T04:01:54;95628.00;;;24.80
15680;BMP180;15488;48.114;11.532;2022-08-02T04:04:22;95636.00;;;24.80
15680;BMP180;15488;48.114;11.532;2022-08-02T04:06:50;95641.00;;;24.70
15680;BMP180;15488;48.114;11.532;2022-08-02T04:09:17;95642.00;;;24.70
15680;BMP180;15488;48.114;11.532;2022-08-02T04:11:44;95646.00;;;24.80
15680;BMP180;15488;48.114;11.532;2022-08-02T04:14:13;95647.00;;;24.70
15680;BMP180;15488;48.114;11.532;2022-08-02T04:16:43;95643.00;;;24.70
15680;BMP180;15488;48.114;11.532;2022-08-02T04:19:14;95638.00;;;24.70
15680;BMP180;15488;48.114;11.532;2022-08-02T04:21:44;95641.00;;;24.80
15680;BMP180;15488;48.114;11.532;2022-08-02T04:24:13;95643.00;;;24.80
15680;BMP180;15488;48.114;11.532;2022-08-02T04:26:44;95640.00;;;24.70
15680;BMP180;15488;48.114;11.532;2022-08-02T04:29:13;95652.00;;;24.70
15680;BMP180;15488;48.114;11.532;2022-08-02T04:31:42;95644.00;;;24.70
15680;BMP180;15488;48.114;11.532;2022-08-02T04:34:09;95645.00;;;24.70
15680;BMP180;15488;48.114;11.532;2022-08-02T04:36:37;95647.00;;;24.60
15680;BMP180;15488;48.114;11.532;2022-08-02T04:39:05;95641.00;;;24.60
15680;BMP180;15488;48.114;11.532;2022-08-02T04:41:40;95650.00;;;24.60
15680;BMP180;15488;48.114;11.532;2022-08-02T04:44:08;95661.00;;;24.60
15680;BMP180;15488;48.114;11.532;2022-08-02T04:46:37;95663.00;;;24.60
15680;BMP180;15488;48.114;11.532;2022-08-02T04:49:05;95667.00;;;24.70
15680;BMP180;15488;48.114;11.532;2022-08-02T04:51:34;95662.00;;;24.70
15680;BMP180;15488;48.114;11.532;2022-08-02T04:54:02;95672.00;;;24.70
15680;BMP180;15488;48.114;11.532;2022-08-02T04:56:29;95668.00;;;24.80
15680;BMP180;15488;48.114;11.532;2022-08-02T04:58:57;95679.00;;;24.80
15680;BMP180;15488;48.114;11.532;2022-08-02T05:01:25;95675.00;;;24.80
15680;BMP180;15488;48.114;11.532;2022-08-02T05:03:53;95676.00;;;24.80
15680;BMP180;15488;48.114;11.532;2022-08-02T05:06:21;95673.00;;;24.90
15680;BMP180;15488;48.114;11.532;2022-08-02T05:08:49;95670.00;;;24.90
15680;BMP180;15488;48.114;11.532;2022-08-02T05:11:16;95669.00;;;24.90
15680;BMP180;15488;48.114;11.532;2022-08-02T05:13:44;95662.00;;;25.00
15680;BMP180;15488;48.114;11.532;2022-08-02T05:16:12;95665.00;;;25.00
15680;BMP180;15488;48.114;11.532;2022-08-02T05:18:39;95666.00;;;25.00
15680;BMP180;15488;48.114;11.532;2022-08-02T05:21:09;95669.00;;;25.00
15680;BMP180;15488;48.114;11.532;2022-08-02T05:23:36;95673.00;;;25.00
15680;BMP180;15488;48.114;11.532;2022-08-02T05:26:04;95672.00;;;25.00
15680;BMP180;15488;48.114;11.532;2022-08-02T05:28:31;95672.00;;;25.10
15680;BMP180;15488;48.114;11.532;2022-08-02T05:30:59;95668.00;;;25.10
15680;BMP180;15488;48.114;11.532;2022-08-02T05:33:26;95668.00;;;25.20
15680;BMP180;15488;48.114;11.532;2022-08-02T05:35:54;95665.00;;;25.20
15680;BMP180;15488;48.114;11.532;2022-08-02T05:38:25;95668.00;;;25.20
15680;BMP180;15488;48.114;11.532;2022-08-02T05:40:56;95665.00;;;25.20
15680;BMP180;15488;48.114;11.532;2022-08-02T05:43:23;95672.00;;;25.30
15680;BMP180;15488;48.114;11.532;2022-08-02T05:45:51;95682.00;;;25.30
15680;BMP180;15488;48.114;11.532;2022-08-02T05:48:20;95676.00;;;25.40
15680;BMP180;15488;48.114;11.532;2022-08-02T05:50:52;95684.00;;;25.30
15680;BMP180;15488;48.114;11.532;2022-08-02T05:53:27;95689.00;;;25.40
15680;BMP180;15488;48.114;11.532;2022-08-02T05:56:04;95694.00;;;25.40
15680;BMP180;15488;48.114;11.532;2022-08-02T05:58:42;95692.00;;;25.50
15680;BMP180;15488;48.114;11.532;2022-08-02T06:01:20;95695.00;;;25.50
15680;BMP180;15488;48.114;11.532;2022-08-02T06:03:51;95689.00;;;25.60
15680;BMP180;15488;48.114;11.532;2022-08-02T06:06:21;95683.00;;;25.60
15680;BMP180;15488;48.114;11.532;2022-08-02T06:08:54;95692.00;;;25.70
15680;BMP180;15488;48.114;11.532;2022-08-02T06:11:28;95691.00;;;25.80
15680;BMP180;15488;48.114;11.532;2022-08-02T06:13:56;95697.00;;;25.80
15680;BMP180;15488;48.114;11.532;2022-08-02T06:16:26;95695.00;;;25.90
15680;BMP180;15488;48.114;11.532;2022-08-02T06:18:54;95697.00;;;26.00
15680;BMP180;15488;48.114;11.532;2022-08-02T06:21:23;95700.00;;;26.00
15680;BMP180;15488;48.114;11.532;2022-08-02T06:23:53;95703.00;;;26.00
15680;BMP180;15488;48.114;11.532;2022-08-02T06:26:23;95703.00;;;26.10
15680;BMP180;15488;48.114;11.532;2022-08-02T06:28:51;95698.00;;;26.10
15680;BMP180;15488;48.114;11.532;2022-08-02T06:31:19;95701.00;;;26.20
15680;BMP180;15488;48.114;11.532;2022-08-02T06:33:47;95704.00;;;26.20
15680;BMP180;15488;48.114;11.532;2022-08-02T06:36:18;95700.00;;;26.30
15680;BMP180;15488;48.114;11.532;2022-08-02T06:38:54;95689.00;;;26.30
15680;BMP180;15488;48.114;11.532;2022-08-02T06:41:23;95695.00;;;26.50
15680;BMP180;15488;48.114;11.532;2022-08-02T06:43:57;95696.00;;;26.50
15680;BMP180;15488;48.114;11.532;2022-08-02T06:46:26;95696.00;;;26.60
15680;BMP180;15488;48.114;11.532;2022-08-02T06:48:58;95689.00;;;26.60
15680;BMP180;15488;48.114;11.532;2022-08-02T06:51:26;95699.00;;;26.70
15680;BMP180;15488;48.114;11.532;2022-08-02T06:53:55;95701.00;;;26.80
15680;BMP180;15488;48.114;11.532;2022-08-02T06:56:22;95694.00;;;26.80
15680;BMP180;15488;48.114;11.532;2022-08-02T06:58:50;95689.00;;;26.90
15680;BMP180;15488;48.114;11.532;2022-08-02T07:01:18;95699.00;;;27.00
15680;BMP180;15488;48.114;11.532;2022-08-02T07:03:45;95704.00;;;27.10
15680;BMP180;15488;48.114;11.532;2022-08-02T07:06:13;95693.00;;;27.20
15680;BMP180;15488;48.114;11.532;2022-08-02T07:08:40;95689.00;;;27.20
15680;BMP180;15488;48.114;11.532;2022-08-02T07:11:10;95691.00;;;27.30
15680;BMP180;15488;48.114;11.532;2022-08-02T07:13:37;95685.00;;;27.30
15680;BMP180;15488;48.114;11.532;2022-08-02T07:16:05;95696.00;;;27.40
15680;BMP180;15488;48.114;11.532;2022-08-02T07:18:34;95697.00;;;27.40
15680;BMP180;15488;48.114;11.532;2022-08-02T07:21:02;95696.00;;;27.40
15680;BMP180;15488;48.114;11.532;2022-08-02T07:23:31;95703.00;;;27.40
15680;BMP180;15488;48.114;11.532;2022-08-02T07:25:59;95699.00;;;27.40
15680;BMP180;15488;48.114;11.532;2022-08-02T07:28:28;95692.00;;;27.50
15680;BMP180;15488;48.114;11.532;2022-08-02T07:30:56;95691.00;;;27.50
15680;BMP180;15488;48.114;11.532;2022-08-02T07:33:23;95695.00;;;27.50
15680;BMP180;15488;48.114;11.532;2022-08-02T07:35:52;95689.00;;;27.50
15680;BMP180;15488;48.114;11.532;2022-08-02T07:38:22;95687.00;;;27.60
15680;BMP180;15488;48.114;11.532;2022-08-02T07:40:50;95679.00;;;27.50
15680;BMP180;15488;48.114;11.532;2022-08-02T07:43:17;95684.00;;;27.60
15680;BMP180;15488;48.114;11.532;2022-08-02T07:45:46;95687.00;;;27.60
15680;BMP180;15488;48.114;11.532;2022-08-02T07:48:14;95688.00;;;27.60
15680;BMP180;15488;48.114;11.532;2022-08-02T07:50:42;95684.00;;;27.60
15680;BMP180;15488;48.114;11.532;2022-08-02T07:53:11;95680.00;;;27.60
15680;BMP180;15488;48.114;11.532;2022-08-02T07:55:39;95682.00;;;27.70
15680;BMP180;15488;48.114;11.532;2022-08-02T07:58:07;95677.00;;;27.70
15680;BMP180;15488;48.114;11.532;2022-08-02T08:00:35;95685.00;;;27.70
15680;BMP180;15488;48.114;11.532;2022-08-02T08:03:03;95682.00;;;27.80
15680;BMP180;15488;48.114;11.532;2022-08-02T08:05:31;95682.00;;;27.80
15680;BMP180;15488;48.114;11.532;2022-08-02T08:07:58;95683.00;;;27.90
15680;BMP180;15488;48.114;11.532;2022-08-02T08:10:26;95683.00;;;27.90
15680;BMP180;15488;48.114;11.532;2022-08-02T08:12:54;95681.00;;;27.90
15680;BMP180;15488;48.114;11.532;2022-08-02T08:15:21;95679.00;;;28.00
15680;BMP180;15488;48.114;11.532;2022-08-02T08:17:49;95676.00;;;28.00
15680;BMP180;15488;48.114;11.532;2022-08-02T08:20:17;95675.00;;;28.10
15680;BMP180;15488;48.114;11.532;2022-08-02T08:22:45;95675.00;;;28.10
15680;BMP180;15488;48.114;11.532;2022-08-02T08:25:13;95675.00;;;28.10
15680;BMP180;15488;48.114;11.532;2022-08-02T08:27:47;95676.00;;;28.20
15680;BMP180;15488;48.114;11.532;2022-08-02T08:30:15;95671.00;;;28.20
15680;BMP180;15488;48.114;11.532;2022-08-02T08:32:43;95676.00;;;28.30
15680;BMP180;15488;48.114;11.532;2022-08-02T08:35:10;95673.00;;;28.30
15680;BMP180;15488;48.114;11.532;2022-08-02T08:37:40;95673.00;;;28.30
15680;BMP180;15488;48.114;11.532;2022-08-02T08:40:09;95674.00;;;28.30
15680;BMP180;15488;48.114;11.532;2022-08-02T08:42:38;95667.00;;;28.40
15680;BMP180;15488;48.114;11.532;2022-08-02T08:45:07;95669.00;;;28.40
15680;BMP180;15488;48.114;11.532;2022-08-02T08:47:36;95669.00;;;28.50
15680;BMP180;15488;48.114;11.532;2022-08-02T08:50:07;95667.00;;;28.60
15680;BMP180;15488;48.114;11.532;2022-08-02T08:52:40;95663.00;;;28.50
15680;BMP180;15488;48.114;11.532;2022-08-02T08:55:09;95666.00;;;28.50
15680;BMP180;15488;48.114;11.532;2022-08-02T08:57:40;95668.00;;;28.60
15680;BMP180;15488;48.114;11.532;2022-08-02T09:00:09;95670.00;;;28.50
15680;BMP180;15488;48.114;11.532;2022-08-02T09:02:39;95664.00;;;28.50
15680;BMP180;15488;48.114;11.532;2022-08-02T09:05:10;95667.00;;;28.60
15680;BMP180;15488;48.114;11.532;2022-08-02T09:07:38;95656.00;;;28.70
15680;BMP180;15488;48.114;11.532;2022-08-02T09:10:33;95670.00;;;28.80
15680;BMP180;15488;48.114;11.532;2022-08-02T09:13:09;95670.00;;;28.80
15680;BMP180;15488;48.114;11.532;2022-08-02T09:15:37;95669.00;;;28.90
15680;BMP180;15488;48.114;11.532;2022-08-02T09:18:06;95667.00;;;28.90
15680;BMP180;15488;48.114;11.532;2022-08-02T09:20:34;95672.00;;;28.90
15680;BMP180;15488;48.114;11.532;2022-08-02T09:23:07;95671.00;;;28.90
15680;BMP180;15488;48.114;11.532;2022-08-02T09:25:36;95670.00;;;29.00
15680;BMP180;15488;48.114;11.532;2022-08-02T09:28:05;95673.00;;;29.00
15680;BMP180;15488;48.114;11.532;2022-08-02T09:30:33;95682.00;;;29.00
15680;BMP180;15488;48.114;11.532;2022-08-02T09:33:08;95678.00;;;29.10
15680;BMP180;15488;48.114;11.532;2022-08-02T09:35:37;95680.00;;;29.20
15680;BMP180;15488;48.114;11.532;2022-08-02T09:38:10;95683.00;;;29.20
15680;BMP180;15488;48.114;11.532;2022-08-02T09:40:40;95689.00;;;29.30
15680;BMP180;15488;48.114;11.532;2022-08-02T09:43:09;95683.00;;;29.40
15680;BMP180;15488;48.114;11.532;2022-08-02T09:45:37;95690.00;;;29.40
15680;BMP180;15488;48.114;11.532;2022-08-02T09:48:07;95682.00;;;29.50
15680;BMP180;15488;48.114;11.532;2022-08-02T09:50:35;95680.00;;;29.50
15680;BMP180;15488;48.114;11.532;2022-08-02T09:53:03;95678.00;;;29.60
15680;BMP180;15488;48.114;11.532;2022-08-02T09:55:31;95680.00;;;29.70
15680;BMP180;15488;48.114;11.532;2022-08-02T09:58:16;95676.00;;;29.90
15680;BMP180;15488;48.114;11.532;2022-08-02T10:00:52;95680.00;;;30.00
15680;BMP180;15488;48.114;11.532;2022-08-02T10:03:20;95679.00;;;30.10
15680;BMP180;15488;48.114;11.532;2022-08-02T10:05:49;95678.00;;;30.10
15680;BMP180;15488;48.114;11.532;2022-08-02T10:08:17;95675.00;;;30.20
15680;BMP180;15488;48.114;11.532;2022-08-02T10:10:45;95674.00;;;30.20
15680;BMP180;15488;48.114;11.532;2022-08-02T10:13:15;95673.00;;;30.30
15680;BMP180;15488;48.114;11.532;2022-08-02T10:15:42;95672.00;;;30.30
15680;BMP180;15488;48.114;11.532;2022-08-02T10:18:10;95675.00;;;30.40
15680;BMP180;15488;48.114;11.532;2022-08-02T10:20:42;95670.00;;;30.40
15680;BMP180;15488;48.114;11.532;2022-08-02T10:23:12;95675.00;;;30.50
15680;BMP180;15488;48.114;11.532;2022-08-02T10:25:39;95680.00;;;30.60
15680;BMP180;15488;48.114;11.532;2022-08-02T10:28:08;95676.00;;;30.60
15680;BMP180;15488;48.114;11.532;2022-08-02T10:30:39;95670.00;;;30.70
15680;BMP180;15488;48.114;11.532;2022-08-02T10:33:09;95673.00;;;30.70
15680;BMP180;15488;48.114;11.532;2022-08-02T10:35:38;95670.00;;;30.70
15680;BMP180;15488;48.114;11.532;2022-08-02T10:38:10;95662.00;;;30.80
15680;BMP180;15488;48.114;11.532;2022-08-02T10:40:45;95667.00;;;30.70
15680;BMP180;15488;48.114;11.532;2022-08-02T10:43:32;95664.00;;;30.90
15680;BMP180;15488;48.114;11.532;2022-08-02T10:46:24;95660.00;;;30.90
15680;BMP180;15488;48.114;11.532;2022-08-02T10:49:11;95656.00;;;30.90
15680;BMP180;15488;48.114;11.532;2022-08-02T10:52:05;95655.00;;;30.90
15680;BMP180;15488;48.114;11.532;2022-08-02T10:54:35;95650.00;;;30.90
15680;BMP180;15488;48.114;11.532;2022-08-02T10:57:13;95653.00;;;30.90
15680;BMP180;15488;48.114;11.532;2022-08-02T10:59:41;95655.00;;;31.00
15680;BMP180;15488;48.114;11.532;2022-08-02T11:02:11;95649.00;;;31.00
15680;BMP180;15488;48.114;11.532;2022-08-02T11:05:01;95646.00;;;31.10
15680;BMP180;15488;48.114;11.532;2022-08-02T11:07:36;95643.00;;;31.10
15680;BMP180;15488;48.114;11.532;2022-08-02T11:10:30;95641.00;;;31.20
15680;BMP180;15488;48.114;11.532;2022-08-02T11:13:09;95641.00;;;31.30
15680;BMP180;15488;48.114;11.532;2022-08-02T11:16:04;95630.00;;;31.40
15680;BMP180;15488;48.114;11.532;2022-08-02T11:19:03;95626.00;;;31.40
15680;BMP180;15488;48.114;11.532;2022-08-02T11:21:31;95623.00;;;31.50
15680;BMP180;15488;48.114;11.532;2022-08-02T11:24:25;95622.00;;;31.50
15680;BMP180;15488;48.114;11.532;2022-08-02T11:26:57;95623.00;;;31.50
15680;BMP180;15488;48.114;11.532;2022-08-02T11:29:36;95619.00;;;31.50
15680;BMP180;15488;48.114;11.532;2022-08-02T11:32:04;95617.00;;;31.50
15680;BMP180;15488;48.114;11.532;2022-08-02T11:34:33;95613.00;;;31.50
15680;BMP180;15488;48.114;11.532;2022-08-02T11:37:01;95619.00;;;31.60
15680;BMP180;15488;48.114;11.532;2022-08-02T11:39:28;95611.00;;;31.60
15680;BMP180;15488;48.114;11.532;2022-08-02T11:41:58;95605.00;;;31.70
15680;BMP180;15488;48.114;11.532;2022-08-02T11:44:26;95606.00;;;31.70
15680;BMP180;15488;48.114;11.532;2022-08-02T11:46:56;95605.00;;;31.80
15680;BMP180;15488;48.114;11.532;2022-08-02T11:49:24;95605.00;;;31.90
15680;BMP180;15488;48.114;11.532;2022-08-02T11:51:54;95611.00;;;32.00
15680;BMP180;15488;48.114;11.532;2022-08-02T11:54:24;95611.00;;;32.00
15680;BMP180;15488;48.114;11.532;2022-08-02T11:56:52;95612.00;;;32.20
15680;BMP180;15488;48.114;11.532;2022-08-02T11:59:20;95608.00;;;32.40
15680;BMP180;15488;48.114;11.532;2022-08-02T12:01:48;95621.00;;;32.50
15680;BMP180;15488;48.114;11.532;2022-08-02T12:04:17;95616.00;;;32.60
15680;BMP180;15488;48.114;11.532;2022-08-02T12:06:56;95621.00;;;32.90
15680;BMP180;15488;48.114;11.532;2022-08-02T12:09:25;95620.00;;;33.10
15680;BMP180;15488;48.114;11.532;2022-08-02T12:11:53;95616.00;;;33.20
15680;BMP180;15488;48.114;11.532;2022-08-02T12:14:21;95619.00;;;33.30
15680;BMP180;15488;48.114;11.532;2022-08-02T12:16:48;95617.00;;;33.40
15680;BMP180;15488;48.114;11.532;2022-08-02T12:19:34;95616.00;;;33.60
15680;BMP180;15488;48.114;11.532;2022-08-02T12:22:12;95624.00;;;33.80
15680;BMP180;15488;48.114;11.532;2022-08-02T12:24:42;95617.00;;;34.00
15680;BMP180;15488;48.114;11.532;2022-08-02T12:27:25;95613.00;;;34.20
15680;BMP180;15488;48.114;11.532;2022-08-02T12:29:58;95610.00;;;34.20
15680;BMP180;15488;48.114;11.532;2022-08-02T12:32:26;95619.00;;;34.30
15680;BMP180;15488;48.114;11.532;2022-08-02T12:35:09;95607.00;;;34.40
15680;BMP180;15488;48.114;11.532;2022-08-02T12:37:40;95608.00;;;34.50
15680;BMP180;15488;48.114;11.532;2022-08-02T12:40:22;95610.00;;;34.60
15680;BMP180;15488;48.114;11.532;2022-08-02T12:42:52;95604.00;;;34.70
15680;BMP180;15488;48.114;11.532;2022-08-02T12:45:19;95593.00;;;34.80
15680;BMP180;15488;48.114;11.532;2022-08-02T12:47:48;95594.00;;;34.90
15680;BMP180;15488;48.114;11.532;2022-08-02T12:50:17;95582.00;;;35.10
15680;BMP180;15488;48.114;11.532;2022-08-02T12:52:47;95586.00;;;35.20
15680;BMP180;15488;48.114;11.532;2022-08-02T12:55:17;95588.00;;;35.40
15680;BMP180;15488;48.114;11.532;2022-08-02T12:57:56;95591.00;;;35.40
15680;BMP180;15488;48.114;11.532;2022-08-02T13:00:27;95589.00;;;35.90
15680;BMP180;15488;48.114;11.532;2022-08-02T13:02:55;95590.00;;;35.90
15680;BMP180;15488;48.114;11.532;2022-08-02T13:05:23;95558.00;;;36.00
15680;BMP180;15488;48.114;11.532;2022-08-02T13:07:52;95578.00;;;36.10
15680;BMP180;15488;48.114;11.532;2022-08-02T13:10:20;95579.00;;;36.20
15680;BMP180;15488;48.114;11.532;2022-08-02T13:12:47;95544.00;;;36.30
15680;BMP180;15488;48.114;11.532;2022-08-02T13:15:17;95576.00;;;36.60
15680;BMP180;15488;48.114;11.532;2022-08-02T13:17:45;95576.00;;;36.80
15680;BMP180;15488;48.114;11.532;2022-08-02T13:20:12;95579.00;;;37.00
15680;BMP180;15488;48.114;11.532;2022-08-02T13:22:41;95577.00;;;37.20
15680;BMP180;15488;48.114;11.532;2022-08-02T13:25:09;95572.00;;;37.40
15680;BMP180;15488;48.114;11.532;2022-08-02T13:27:37;95541.00;;;37.70
15680;BMP180;15488;48.114;11.532;2022-08-02T13:30:07;95573.00;;;38.00
15680;BMP180;15488;48.114;11.532;2022-08-02T13:32:34;95570.00;;;38.40
15680;BMP180;15488;48.114;11.532;2022-08-02T13:35:02;95562.00;;;39.00
15680;BMP180;15488;48.114;11.532;2022-08-02T13:37:29;95561.00;;;39.90
15680;BMP180;15488;48.114;11.532;2022-08-02T13:39:57;95562.00;;;41.60
15680;BMP180;15488;48.114;11.532;2022-08-02T13:42:25;95562.00;;;43.40
15680;BMP180;15488;48.114;11.532;2022-08-02T13:44:53;95558.00;;;44.90
15680;BMP180;15488;48.114;11.532;2022-08-02T13:47:20;95559.00;;;46.00
15680;BMP180;15488;48.114;11.532;2022-08-02T13:49:47;95556.00;;;47.20
15680;BMP180;15488;48.114;11.532;2022-08-02T13:52:15;95557.00;;;48.20
15680;BMP180;15488;48.114;11.532;2022-08-02T13:54:43;95552.00;;;49.20
15680;BMP180;15488;48.114;11.532;2022-08-02T13:57:10;95553.00;;;49.90
15680;BMP180;15488;48.114;11.532;2022-08-02T13:59:39;95548.00;;;50.70
15680;BMP180;15488;48.114;11.532;2022-08-02T14:02:07;95552.00;;;51.10
15680;BMP180;15488;48.114;11.532;2022-08-02T14:04:34;95551.00;;;51.50
15680;BMP180;15488;48.114;11.532;2022-08-02T14:07:03;95556.00;;;51.70
15680;BMP180;15488;48.114;11.532;2022-08-02T14:09:31;95547.00;;;50.70
15680;BMP180;15488;48.114;11.532;2022-08-02T14:12:00;95558.00;;;50.50
15680;BMP180;15488;48.114;11.532;2022-08-02T14:14:28;95552.00;;;50.20
15680;BMP180;15488;48.114;11.532;2022-08-02T14:16:57;95557.00;;;49.70
15680;BMP180;15488;48.114;11.532;2022-08-02T14:19:24;95555.00;;;49.40
15680;BMP180;15488;48.114;11.532;2022-08-02T14:21:52;95550.00;;;48.80
15680;BMP180;15488;48.114;11.532;2022-08-02T14:24:20;95551.00;;;48.00
15680;BMP180;15488;48.114;11.532;2022-08-02T14:26:49;95545.00;;;47.10
15680;BMP180;15488;48.114;11.532;2022-08-02T14:29:17;95544.00;;;46.30
15680;BMP180;15488;48.114;11.532;2022-08-02T14:31:45;95545.00;;;45.40
15680;BMP180;15488;48.114;11.532;2022-08-02T14:34:13;95550.00;;;44.70